Time;durP1;ratioP1;P1;durP2;ratioP2;P2;SDS_P1;SDS_P2;PMS_P1;PMS_P2;Temp;Humidity;BMP_temperature;BMP_pressure;BME280_temperature;BME280_humidity;BME280_pressure;Samples;Min_cycle;Max_cycle;Signal;HPM_P1;HPM_P2
2021/04/09 00:02:10;;;;;;;17.77;11.63;;;5.60;61.50;4.40;101572.00;;;;4995780;28;20093;-72
2021/04/09 00:04:37;;;;;;;18.80;11.70;;;5.60;61.70;4.40;101575.00;;;;4990141;28;20072;-73
2021/04/09 00:07:04;;;;;;;17.98;11.35;;;5.60;61.60;4.40;101552.00;;;;4987905;28;20046;-72
2021/04/09 00:09:30;;;;;;;17.35;11.75;;;5.60;61.40;4.40;101561.00;;;;4977369;28;20342;-72
2021/04/09 00:11:56;;;;;;;20.37;12.47;;;5.60;61.80;4.40;101557.00;;;;4993722;28;20040;-72
2021/04/09 00:14:23;;;;;;;22.55;12.60;;;5.60;61.80;4.40;101555.00;;;;4978481;28;20034;-72
2021/04/09 00:16:49;;;;;;;21.20;11.55;;;5.50;62.10;4.30;101549.00;;;;4995169;28;20670;-72
2021/04/09 00:19:19;;;;;;;18.58;11.55;;;5.50;62.10;4.30;101539.00;;;;4984800;28;20050;-73
2021/04/09 00:21:45;;;;;;;16.38;11.32;;;5.50;62.00;4.30;101544.00;;;;4992116;28;20049;-72
2021/04/09 00:24:13;;;;;;;19.05;11.32;;;5.50;62.00;4.30;101541.00;;;;4988215;28;20061;-73
2021/04/09 00:26:40;;;;;;;19.02;12.02;;;5.50;62.00;4.30;101537.00;;;;4996129;28;20042;-74
2021/04/09 00:29:07;;;;;;;19.88;11.82;;;5.50;62.20;4.20;101538.00;;;;4994265;28;20524;-73
2021/04/09 00:31:34;;;;;;;17.10;11.05;;;5.40;62.70;4.20;101534.00;;;;4982676;28;20829;-72
2021/04/09 00:34:01;;;;;;;18.95;11.70;;;5.40;62.40;4.20;101533.00;;;;4991439;28;20034;-73
2021/04/09 00:36:27;;;;;;;23.05;12.23;;;5.40;62.40;4.20;101537.00;;;;4989774;28;20125;-73
2021/04/09 00:38:54;;;;;;;19.55;11.70;;;5.40;62.80;4.20;101532.00;;;;4976325;28;20096;-73
2021/04/09 00:41:20;;;;;;;21.98;12.73;;;5.40;62.80;4.20;101518.00;;;;4991423;28;20840;-72
2021/04/09 00:43:47;;;;;;;18.33;11.52;;;5.40;62.90;4.20;101514.00;;;;5005303;28;20057;-72
2021/04/09 00:46:13;;;;;;;20.65;11.65;;;5.40;63.10;4.10;101522.00;;;;4991089;28;20056;-72
2021/04/09 00:48:40;;;;;;;19.25;11.75;;;5.30;62.90;4.10;101518.00;;;;4987595;28;20034;-73
2021/04/09 00:51:07;;;;;;;19.73;12.25;;;5.30;62.80;4.10;101526.00;;;;4989743;28;20057;-73
2021/04/09 00:53:34;;;;;;;;;;;5.30;63.20;4.00;101509.00;;;;4996158;28;20093;-72
2021/04/09 00:56:04;;;;;;;22.02;11.90;;;5.30;63.90;4.10;101513.00;;;;4992936;28;19971;-72
2021/04/09 00:58:31;;;;;;;17.33;11.48;;;5.30;63.20;4.00;101504.00;;;;4997940;28;20100;-73
2021/04/09 01:00:58;;;;;;;18.83;11.15;;;5.30;63.50;4.00;101502.00;;;;4989883;28;20481;-73
2021/04/09 01:03:25;;;;;;;20.23;11.77;;;5.30;63.60;4.00;101499.00;;;;4990277;28;20046;-74
2021/04/09 01:05:53;;;;;;;17.35;11.68;;;5.20;63.50;4.00;101494.00;;;;4974367;28;20463;-73
2021/04/09 01:08:22;;;;;;;22.20;11.68;;;5.20;63.40;4.00;101495.00;;;;4991116;28;20050;-73
2021/04/09 01:10:48;;;;;;;17.60;11.68;;;5.20;63.60;4.00;101492.00;;;;5008037;28;20107;-73
2021/04/09 01:13:14;;;;;;;22.27;11.75;;;5.20;63.80;4.00;101494.00;;;;4988443;28;20073;-73
2021/04/09 01:15:41;;;;;;;19.88;11.30;;;5.20;63.60;4.00;101487.00;;;;4969708;28;20136;-73
2021/04/09 01:18:24;;;;;;;18.23;11.43;;;5.20;63.40;3.90;101481.00;;;;4993490;28;20030;-73
2021/04/09 01:21:09;;;;;;;25.17;13.30;;;5.10;63.80;3.90;101474.00;;;;4996824;28;20835;-73
2021/04/09 01:24:19;;;;;;;26.95;12.80;;;5.10;64.10;3.90;101482.00;;;;4992206;28;20042;-73
2021/04/09 01:26:54;;;;;;;20.42;11.82;;;5.10;64.10;3.90;101479.00;;;;4985405;28;20041;-73
2021/04/09 01:30:01;;;;;;;18.67;11.38;;;5.10;64.10;3.80;101476.00;;;;4978425;28;20054;-71
2021/04/09 01:32:27;;;;;;;24.42;13.02;;;5.10;64.30;3.90;101470.00;;;;4972480;28;20504;-73
2021/04/09 01:35:03;;;;;;;20.90;12.18;;;5.10;64.20;3.90;101463.00;;;;4991665;28;20129;-73
2021/04/09 01:37:40;;;;;;;20.92;12.00;;;5.10;64.20;3.90;101460.00;;;;4994821;28;20045;-73
2021/04/09 01:40:19;;;;;;;22.47;12.00;;;5.10;64.20;3.90;101461.00;;;;4986118;28;20057;-73
2021/04/09 01:42:51;;;;;;;22.27;12.95;;;5.10;64.40;3.90;101455.00;;;;4989934;28;20677;-73
2021/04/09 01:45:20;;;;;;;24.50;12.60;;;5.10;63.70;3.90;101449.00;;;;4962577;28;20058;-74
2021/04/09 01:47:48;;;;;;;20.75;12.30;;;5.10;64.50;3.90;101434.00;;;;4987834;28;20073;-73
2021/04/09 01:50:16;;;;;;;25.48;13.35;;;5.10;64.50;3.90;101443.00;;;;4989607;28;20050;-73
2021/04/09 01:52:46;;;;;;;22.73;12.43;;;5.10;64.70;3.90;101430.00;;;;4997675;28;20042;-73
2021/04/09 01:55:14;;;;;;;18.35;11.68;;;5.10;64.70;3.90;101432.00;;;;4995910;28;20050;-73
2021/04/09 01:57:43;;;;;;;20.13;12.52;;;5.10;65.00;3.80;101433.00;;;;4996488;28;20046;-73
2021/04/09 02:00:17;;;;;;;23.48;12.02;;;5.10;64.70;3.90;101428.00;;;;4979308;28;20046;-73
2021/04/09 02:02:46;;;;;;;22.67;11.90;;;5.10;64.90;3.90;101431.00;;;;4990980;28;20056;-73
2021/04/09 02:05:20;;;;;;;23.48;12.50;;;5.10;64.70;3.90;101436.00;;;;4991569;28;20037;-73
2021/04/09 02:07:47;;;;;;;18.60;12.02;;;5.10;65.10;3.90;101437.00;;;;4993169;28;20042;-73
2021/04/09 02:10:15;;;;;;;18.08;11.77;;;5.10;65.20;3.90;101428.00;;;;5006448;28;20042;-73
2021/04/09 02:12:43;;;;;;;20.95;11.63;;;5.10;66.30;3.90;101434.00;;;;4997640;28;20038;-73
2021/04/09 02:15:13;;;;;;;20.65;11.90;;;5.10;64.90;3.90;101430.00;;;;4992671;28;20040;-73
2021/04/09 02:17:40;;;;;;;17.25;11.38;;;5.10;65.10;3.90;101418.00;;;;4977398;28;20099;-73
2021/04/09 02:20:13;;;;;;;17.90;11.50;;;5.10;64.90;3.90;101417.00;;;;4974661;28;20045;-74
2021/04/09 02:22:43;;;;;;;25.05;11.85;;;5.10;65.10;3.90;101414.00;;;;4997204;28;20320;-73
2021/04/09 02:25:12;;;;;;;19.15;11.45;;;5.10;65.00;3.90;101414.00;;;;4996296;28;20042;-74
2021/04/09 02:27:38;;;;;;;18.55;11.90;;;5.10;65.00;3.90;101399.00;;;;4998173;28;20044;-74
2021/04/09 02:30:09;;;;;;;23.33;11.82;;;5.10;66.40;3.90;101405.00;;;;4984581;28;20054;-74
2021/04/09 02:32:36;;;;;;;17.65;10.40;;;5.10;65.40;3.90;101395.00;;;;4980663;28;20112;-74
2021/04/09 02:35:04;;;;;;;19.83;11.75;;;5.10;65.20;3.90;101398.00;;;;4993770;28;20045;-74
2021/04/09 02:37:30;;;;;;;21.08;11.65;;;5.10;65.50;3.90;101392.00;;;;4994338;28;20556;-74
2021/04/09 02:39:59;;;;;;;23.15;11.65;;;5.10;65.50;3.90;101398.00;;;;4995913;28;20471;-74
2021/04/09 02:42:25;;;;;;;18.38;11.05;;;5.10;65.50;3.90;101405.00;;;;4996707;28;20623;-74
2021/04/09 02:44:55;;;;;;;20.50;11.07;;;5.10;65.40;3.90;101394.00;;;;4986777;28;20053;-74
2021/04/09 02:47:25;;;;;;;20.00;11.18;;;5.10;65.60;3.90;101396.00;;;;4985649;28;20070;-74
2021/04/09 02:50:19;;;;;;;18.63;10.30;;;5.10;65.80;3.90;101393.00;;;;4984528;28;20050;-72
2021/04/09 02:53:04;;;;;;;20.60;10.60;;;5.10;65.70;3.90;101390.00;;;;4987104;28;20476;-73
2021/04/09 02:55:34;;;;;;;19.27;10.80;;;5.10;65.60;3.90;101386.00;;;;4984550;28;20112;-72
2021/04/09 02:58:03;;;;;;;16.50;9.30;;;5.10;65.30;3.90;101386.00;;;;4989360;28;21632;-73
2021/04/09 03:00:30;;;;;;;15.50;9.60;;;5.10;65.80;3.90;101382.00;;;;4997912;28;20595;-74
2021/04/09 03:02:56;;;;;;;18.88;9.95;;;5.10;65.80;3.90;101382.00;;;;4988274;28;20543;-73
2021/04/09 03:05:23;;;;;;;22.23;10.70;;;5.10;66.50;4.00;101379.00;;;;4987698;28;20523;-74
2021/04/09 03:07:49;;;;;;;17.88;10.10;;;5.10;65.70;4.00;101384.00;;;;4985532;28;20427;-73
2021/04/09 03:10:18;;;;;;;16.10;8.98;;;5.20;65.70;4.00;101377.00;;;;4988977;28;20152;-72
2021/04/09 03:12:45;;;;;;;18.48;9.80;;;5.20;65.80;4.00;101370.00;;;;5008250;28;20042;-73
2021/04/09 03:15:37;;;;;;;16.98;9.38;;;5.20;65.50;4.00;101381.00;;;;4975449;28;20096;-73
2021/04/09 03:18:07;;;;;;;17.40;8.93;;;5.20;65.30;4.00;101383.00;;;;4993209;28;20532;-73
2021/04/09 03:20:34;;;;;;;15.70;9.07;;;5.20;65.50;4.00;101383.00;;;;4988923;28;20042;-73
2021/04/09 03:23:00;;;;;;;19.35;9.52;;;5.20;65.60;4.00;101377.00;;;;4986032;28;20077;-73
2021/04/09 03:25:26;;;;;;;15.68;9.25;;;5.20;65.20;4.00;101367.00;;;;4987707;28;20081;-73
2021/04/09 03:27:52;;;;;;;15.27;9.35;;;5.20;65.40;4.10;101376.00;;;;4992234;28;20124;-73
2021/04/09 03:30:21;;;;;;;18.08;9.35;;;5.20;65.50;4.00;101362.00;;;;4993053;28;20046;-73
2021/04/09 03:32:47;;;;;;;15.25;8.90;;;5.30;65.60;4.10;101368.00;;;;4980737;28;20056;-73
2021/04/09 03:35:14;;;;;;;15.10;9.50;;;5.30;65.50;4.10;101364.00;;;;4991906;28;20043;-73
2021/04/09 03:37:40;;;;;;;16.27;9.02;;;5.30;65.50;4.10;101371.00;;;;4986933;28;20133;-74
2021/04/09 03:40:07;;;;;;;14.15;8.70;;;5.20;65.80;4.10;101362.00;;;;4990334;28;20099;-74
2021/04/09 03:42:33;;;;;;;15.77;8.88;;;5.20;65.80;4.10;101356.00;;;;4992091;28;20172;-73
2021/04/09 03:44:59;;;;;;;18.58;9.00;;;5.20;64.80;4.10;101349.00;;;;4994272;28;20515;-73
2021/04/09 03:47:25;;;;;;;16.40;9.02;;;5.20;65.60;4.00;101351.00;;;;4988298;28;20045;-73
2021/04/09 03:49:51;;;;;;;16.65;9.65;;;5.20;66.00;4.00;101349.00;;;;4991173;28;21978;-73
2021/04/09 03:52:17;;;;;;;20.70;9.55;;;5.30;66.00;4.00;101357.00;;;;4986517;28;20787;-73
2021/04/09 03:54:43;;;;;;;16.70;9.60;;;5.20;65.90;4.10;101340.00;;;;4987718;28;20061;-73
2021/04/09 03:57:09;;;;;;;15.77;8.45;;;5.30;65.90;4.00;101356.00;;;;4989240;28;20137;-74
2021/04/09 03:59:35;;;;;;;15.52;8.63;;;5.20;66.00;4.00;101348.00;;;;4994055;28;20125;-73
2021/04/09 04:02:01;;;;;;;18.17;9.35;;;5.20;66.40;4.00;101341.00;;;;4996507;28;20513;-73
2021/04/09 04:04:27;;;;;;;16.88;9.35;;;5.20;66.10;4.00;101343.00;;;;4998112;28;20056;-73
2021/04/09 04:06:53;;;;;;;18.67;9.25;;;5.20;66.10;4.00;101327.00;;;;4993739;28;20057;-73
2021/04/09 04:09:19;;;;;;;18.30;9.25;;;5.20;66.10;4.00;101338.00;;;;4995818;28;20045;-73
2021/04/09 04:11:45;;;;;;;16.15;9.23;;;5.20;66.10;4.00;101332.00;;;;4986986;28;20057;-74
2021/04/09 04:14:11;;;;;;;15.35;9.38;;;5.20;66.20;4.00;101326.00;;;;5009589;28;20042;-74
2021/04/09 04:16:37;;;;;;;16.20;9.13;;;7.60;67.40;4.10;101341.00;;;;4994732;28;20077;-73
2021/04/09 04:19:03;;;;;;;20.00;10.13;;;5.20;66.10;4.10;101346.00;;;;4995036;28;20054;-74
2021/04/09 04:21:29;;;;;;;16.95;9.30;;;5.30;66.40;4.10;101339.00;;;;4990650;28;20088;-73
2021/04/09 04:23:55;;;;;;;12.95;8.85;;;5.30;66.40;4.00;101326.00;;;;4993260;28;20126;-74
2021/04/09 04:26:21;;;;;;;15.25;7.93;;;5.30;66.40;4.00;101321.00;;;;4991224;28;20596;-73
2021/04/09 04:28:47;;;;;;;17.35;8.63;;;5.30;66.30;4.00;101326.00;;;;4984672;28;20061;-73
2021/04/09 04:31:14;;;;;;;14.77;8.52;;;5.20;66.40;4.00;101331.00;;;;4995622;28;20573;-74
2021/04/09 04:33:40;;;;;;;16.30;8.88;;;5.20;66.50;4.00;101340.00;;;;4993819;28;20037;-73
2021/04/09 04:36:06;;;;;;;13.27;9.07;;;5.20;66.60;4.00;101337.00;;;;5009102;28;20520;-74
2021/04/09 04:38:33;;;;;;;14.80;8.52;;;5.20;66.50;3.90;101328.00;;;;4994049;28;20042;-73
2021/04/09 04:40:59;;;;;;;19.00;9.68;;;5.20;66.50;4.00;101333.00;;;;4994277;28;20050;-73
2021/04/09 04:43:25;;;;;;;15.10;8.90;;;5.10;66.20;3.90;101318.00;;;;4992622;28;20043;-73
2021/04/09 04:45:52;;;;;;;17.30;8.98;;;5.10;66.70;3.90;101321.00;;;;4987978;28;20604;-74
2021/04/09 04:48:18;;;;;;;20.98;9.60;;;5.10;66.50;3.90;101321.00;;;;4991563;28;20951;-74
2021/04/09 04:50:44;;;;;;;15.60;8.25;;;5.10;66.80;3.90;101322.00;;;;4989639;28;20042;-73
2021/04/09 04:53:09;;;;;;;15.70;9.52;;;5.10;67.00;3.80;101324.00;;;;4995189;28;20108;-73
2021/04/09 04:55:36;;;;;;;11.18;7.78;;;5.10;67.00;3.80;101323.00;;;;4999548;28;20041;-74
2021/04/09 04:58:02;;;;;;;14.77;7.93;;;5.10;67.00;3.80;101322.00;;;;4995556;28;20699;-74
2021/04/09 05:00:29;;;;;;;19.08;9.40;;;5.00;67.00;3.80;101328.00;;;;4996180;28;20351;-74
2021/04/09 05:02:54;;;;;;;14.65;9.00;;;5.00;67.40;3.80;101319.00;;;;4999693;28;20046;-74
2021/04/09 05:05:21;;;;;;;12.18;8.82;;;5.00;67.40;3.80;101321.00;;;;4999397;28;20046;-74
2021/04/09 05:07:47;;;;;;;18.00;9.93;;;5.00;67.30;3.70;101324.00;;;;4974806;28;20129;-75
2021/04/09 05:10:13;;;;;;;26.33;13.85;;;5.00;67.70;3.70;101311.00;;;;4998046;28;20057;-73
2021/04/09 05:12:39;;;;;;;18.17;10.18;;;5.00;67.70;3.70;101306.00;;;;5011250;28;20100;-74
2021/04/09 05:15:08;;;;;;;17.90;9.65;;;4.90;67.40;3.70;101309.00;;;;4990806;28;20038;-74
2021/04/09 05:17:36;;;;;;;20.13;10.18;;;4.90;68.40;3.70;101297.00;;;;4996159;28;20038;-73
2021/04/09 05:20:06;;;;;;;18.85;9.68;;;4.90;67.80;3.70;101310.00;;;;4970859;28;20045;-74
2021/04/09 05:22:32;;;;;;;15.48;9.20;;;4.90;67.90;3.70;101307.00;;;;4995824;28;20060;-74
2021/04/09 05:24:58;;;;;;;18.88;10.25;;;5.00;67.60;3.70;101313.00;;;;4993321;28;20060;-72
2021/04/09 05:27:24;;;;;;;20.13;9.20;;;4.90;68.10;3.70;101311.00;;;;4999871;28;20562;-72
2021/04/09 05:29:51;;;;;;;19.80;10.23;;;4.90;67.70;3.70;101301.00;;;;4995739;28;20505;-71
2021/04/09 05:32:17;;;;;;;21.40;10.50;;;4.90;67.50;3.70;101306.00;;;;4978866;28;20609;-71
2021/04/09 05:34:43;;;;;;;18.45;10.13;;;4.90;67.60;3.80;101306.00;;;;4995566;28;20508;-71
2021/04/09 05:37:10;;;;;;;16.40;9.98;;;4.90;67.80;3.80;101306.00;;;;4991218;28;20069;-72
2021/04/09 05:39:37;;;;;;;18.48;11.07;;;4.90;67.90;3.80;101306.00;;;;4987343;28;20034;-72
2021/04/09 05:42:06;;;;;;;21.67;12.18;;;5.00;68.20;3.80;101305.00;;;;4996552;28;20128;-72
2021/04/09 05:44:34;;;;;;;17.42;9.57;;;5.00;68.40;3.90;101306.00;;;;4997072;28;20042;-72
2021/04/09 05:47:03;;;;;;;21.02;10.85;;;5.00;67.90;3.90;101295.00;;;;4993800;28;20044;-73
2021/04/09 05:49:29;;;;;;;16.13;10.20;;;5.10;68.10;3.90;101300.00;;;;4993938;28;20057;-72
2021/04/09 05:51:55;;;;;;;18.17;10.23;;;5.10;68.20;4.00;101313.00;;;;4993196;28;20038;-73
2021/04/09 05:54:22;;;;;;;16.60;9.40;;;5.10;68.20;4.00;101306.00;;;;4992783;28;20551;-71
2021/04/09 05:56:48;;;;;;;20.35;10.43;;;5.20;68.20;4.10;101310.00;;;;4994375;28;20037;-71
2021/04/09 05:59:14;;;;;;;18.75;9.70;;;5.30;68.10;4.10;101315.00;;;;4993761;28;20493;-72
2021/04/09 06:01:40;;;;;;;22.67;11.55;;;5.30;68.00;4.20;101311.00;;;;4995109;28;20144;-72
2021/04/09 06:04:07;;;;;;;21.50;10.63;;;5.30;68.20;4.20;101305.00;;;;4989288;28;20045;-71
2021/04/09 06:06:32;;;;;;;20.45;10.70;;;5.30;67.90;4.30;101295.00;;;;4987073;28;20038;-71
2021/04/09 06:08:58;;;;;;;19.92;11.02;;;5.40;67.90;4.30;101306.00;;;;4995727;28;20049;-71
2021/04/09 06:11:25;;;;;;;23.25;11.60;;;5.50;68.10;4.40;101297.00;;;;4989034;28;20061;-71
2021/04/09 06:13:53;;;;;;;20.95;10.82;;;5.50;68.10;4.50;101304.00;;;;4998365;28;20038;-71
2021/04/09 06:16:20;;;;;;;20.17;11.35;;;5.60;68.10;4.60;101303.00;;;;4999222;28;20087;-71
2021/04/09 06:18:45;;;;;;;19.13;11.70;;;5.60;67.50;4.60;101300.00;;;;4994534;28;20030;-70
2021/04/09 06:21:11;;;;;;;19.73;11.73;;;5.70;67.50;4.60;101312.00;;;;4995055;28;20057;-71
2021/04/09 06:23:37;;;;;;;22.45;11.10;;;5.70;68.00;4.70;101310.00;;;;4990658;28;20034;-71
2021/04/09 06:26:03;;;;;;;23.20;12.07;;;5.80;68.00;4.70;101306.00;;;;4990190;28;20042;-72
2021/04/09 06:28:29;;;;;;;21.13;11.75;;;5.80;68.10;4.70;101307.00;;;;4996056;28;20180;-70
2021/04/09 06:30:55;;;;;;;18.83;11.55;;;5.90;67.50;4.80;101302.00;;;;4994778;28;20053;-71
2021/04/09 06:33:21;;;;;;;19.40;11.25;;;5.90;67.80;4.90;101305.00;;;;4990210;28;20577;-71
2021/04/09 06:35:47;;;;;;;21.17;11.60;;;5.90;67.40;5.00;101301.00;;;;4994274;28;20061;-70
2021/04/09 06:38:13;;;;;;;18.60;11.15;;;6.00;68.70;5.10;101303.00;;;;4981234;28;20532;-71
2021/04/09 06:40:41;;;;;;;22.52;12.27;;;6.10;66.90;5.10;101304.00;;;;4986528;28;20038;-71
2021/04/09 06:43:09;;;;;;;21.08;12.10;;;6.20;67.20;5.20;101290.00;;;;4985253;28;20074;-70
2021/04/09 06:45:37;;;;;;;23.58;12.00;;;6.20;67.00;5.30;101295.00;;;;4990654;28;20126;-70
2021/04/09 06:48:03;;;;;;;;;;;6.30;67.00;5.40;101289.00;;;;4986277;28;20042;-71
2021/04/09 06:50:33;;;;;;;23.20;11.55;;;6.40;67.80;5.50;101292.00;;;;4979125;28;19925;-70
2021/04/09 06:52:59;;;;;;;21.45;11.18;;;6.50;66.80;5.60;101287.00;;;;4996137;28;20598;-68
2021/04/09 06:55:25;;;;;;;18.88;11.20;;;6.60;66.90;5.70;101303.00;;;;4992438;28;20711;-70
2021/04/09 06:57:52;;;;;;;22.75;11.65;;;6.70;66.80;5.80;101301.00;;;;4976195;28;20045;-70
2021/04/09 07:00:24;;;;;;;16.88;10.70;;;6.80;67.80;5.90;101304.00;;;;4990165;28;20038;-70
2021/04/09 07:02:53;;;;;;;19.23;11.07;;;6.80;66.30;5.90;101299.00;;;;4966593;28;20136;-69
2021/04/09 07:05:19;;;;;;;18.67;11.57;;;6.90;66.30;6.10;101304.00;;;;4980342;28;20193;-70
2021/04/09 07:07:45;;;;;;;17.98;11.68;;;7.00;66.20;6.10;101302.00;;;;4987011;28;20049;-69
2021/04/09 07:10:12;;;;;;;22.33;10.85;;;7.10;66.20;6.20;101304.00;;;;4992763;28;20041;-70
2021/04/09 07:12:38;;;;;;;20.10;10.82;;;7.10;66.00;6.30;101294.00;;;;4994105;28;20454;-71
2021/04/09 07:15:09;;;;;;;17.35;10.80;;;7.20;65.90;6.40;101302.00;;;;4989842;28;20042;-69
2021/04/09 07:17:49;;;;;;;16.92;9.50;;;7.30;65.80;6.50;101282.00;;;;5001075;28;20041;-70
2021/04/09 07:20:19;;;;;;;15.90;10.85;;;7.40;65.70;6.50;101283.00;;;;4993740;28;20532;-70
2021/04/09 07:22:55;;;;;;;21.05;9.98;;;7.50;65.50;6.70;101298.00;;;;4987026;28;20046;-70
2021/04/09 07:25:24;;;;;;;19.98;10.32;;;7.60;65.30;6.80;101300.00;;;;4991328;28;20046;-70
2021/04/09 07:28:11;;;;;;;18.42;9.77;;;7.70;65.20;7.00;101288.00;;;;4993717;28;20042;-70
2021/04/09 07:30:38;;;;;;;15.05;9.23;;;7.80;65.00;7.10;101296.00;;;;4984409;28;20042;-69
2021/04/09 07:33:06;;;;;;;18.13;9.70;;;8.00;64.90;7.30;101290.00;;;;4987080;28;20042;-69
2021/04/09 07:36:00;;;;;;;16.60;9.82;;;8.10;64.70;7.40;101301.00;;;;4987641;28;20108;-70
2021/04/09 07:38:36;;;;;;;14.65;9.00;;;9.40;64.90;7.60;101297.00;;;;4993801;28;20071;-70
2021/04/09 07:41:08;;;;;;;16.02;9.48;;;8.40;64.20;7.80;101293.00;;;;4992363;28;20124;-70
2021/04/09 07:43:41;;;;;;;16.02;9.25;;;8.50;63.90;7.90;101303.00;;;;4963780;28;20034;-71
2021/04/09 07:46:19;;;;;;;20.08;9.50;;;8.70;63.90;8.10;101299.00;;;;4988078;28;20073;-70
2021/04/09 07:48:45;;;;;;;16.40;8.75;;;8.80;63.70;8.20;101292.00;;;;4992788;28;21824;-71
2021/04/09 07:51:19;;;;;;;15.27;8.45;;;8.90;63.40;8.30;101300.00;;;;4991151;28;20065;-70
2021/04/09 07:53:47;;;;;;;15.40;8.48;;;9.10;63.90;8.40;101305.00;;;;4990816;28;20038;-70
2021/04/09 07:56:18;;;;;;;15.93;8.73;;;9.20;63.20;8.50;101309.00;;;;4992874;28;20145;-71
2021/04/09 07:58:45;;;;;;;15.38;8.30;;;9.30;63.00;8.60;101305.00;;;;4988434;28;20521;-71
2021/04/09 08:01:20;;;;;;;17.85;7.93;;;9.40;62.90;8.60;101307.00;;;;4997989;28;20037;-71
2021/04/09 08:03:46;;;;;;;14.10;7.43;;;9.40;62.40;8.80;101310.00;;;;4997179;28;20034;-71
2021/04/09 08:06:19;;;;;;;10.35;7.00;;;9.50;62.30;8.90;101299.00;;;;4980529;28;20050;-71
2021/04/09 08:08:48;;;;;;;16.15;7.53;;;9.60;61.80;8.90;101298.00;;;;4989703;28;20345;-71
2021/04/09 08:11:33;;;;;;;13.80;8.10;;;9.70;61.80;9.10;101297.00;;;;4991236;28;20088;-71
2021/04/09 08:14:06;;;;;;;12.48;7.05;;;9.80;62.10;9.30;101296.00;;;;4990136;28;20033;-70
2021/04/09 08:16:33;;;;;;;14.68;7.32;;;9.90;61.50;9.40;101295.00;;;;4994615;28;20105;-70
2021/04/09 08:19:12;;;;;;;14.77;7.10;;;10.10;61.30;9.60;101293.00;;;;4990701;28;20508;-70
2021/04/09 08:21:54;;;;;;;8.90;6.10;;;10.20;61.40;9.70;101299.00;;;;4993362;28;20061;-70
2021/04/09 08:24:24;;;;;;;9.77;6.63;;;10.40;61.20;9.80;101296.00;;;;5007519;28;20137;-71
2021/04/09 08:26:51;;;;;;;9.00;6.35;;;10.50;60.90;9.90;101303.00;;;;4995129;28;20697;-72
2021/04/09 08:29:18;;;;;;;10.25;6.47;;;10.60;60.80;9.90;101300.00;;;;4996906;28;20069;-72
2021/04/09 08:31:45;;;;;;;12.52;6.55;;;10.70;60.40;10.00;101320.00;;;;4992091;28;20038;-71
2021/04/09 08:34:13;;;;;;;11.15;6.15;;;10.70;60.50;10.00;101305.00;;;;4992819;28;20038;-71
2021/04/09 08:36:43;;;;;;;11.93;6.40;;;10.80;60.00;9.90;101310.00;;;;4989075;28;20063;-72
2021/04/09 08:39:12;;;;;;;9.35;5.75;;;10.70;59.60;9.90;101303.00;;;;5009568;28;20046;-70
2021/04/09 08:41:40;;;;;;;9.77;5.88;;;10.70;60.60;9.90;101306.00;;;;4989046;28;20042;-70
2021/04/09 08:44:07;;;;;;;13.02;5.90;;;10.70;59.80;9.90;101312.00;;;;4991535;28;20356;-70
2021/04/09 08:46:34;;;;;;;8.13;5.57;;;10.70;60.00;9.90;101320.00;;;;4997550;28;20072;-71
2021/04/09 08:49:00;;;;;;;9.75;5.55;;;10.70;59.50;9.90;101316.00;;;;5000077;28;20037;-71
2021/04/09 08:51:27;;;;;;;9.77;5.68;;;10.70;59.30;9.90;101319.00;;;;4974823;28;20042;-71
2021/04/09 08:53:54;;;;;;;10.05;6.00;;;10.70;59.70;10.00;101323.00;;;;4989676;28;20136;-72
2021/04/09 08:56:36;;;;;;;10.15;5.60;;;10.80;59.60;9.90;101315.00;;;;4994943;28;20080;-71
2021/04/09 08:59:03;;;;;;;9.90;5.95;;;10.80;59.40;10.00;101327.00;;;;4990314;28;20401;-71
2021/04/09 09:01:29;;;;;;;16.50;6.07;;;10.80;59.50;10.00;101323.00;;;;4992436;28;20098;-72
2021/04/09 09:04:21;;;;;;;11.88;6.00;;;10.80;59.40;10.10;101325.00;;;;4993750;28;20077;-72
2021/04/09 09:06:49;;;;;;;9.00;5.15;;;10.90;58.80;10.20;101323.00;;;;4993878;28;20058;-71
2021/04/09 09:09:32;;;;;;;9.82;5.82;;;11.00;59.20;10.30;101316.00;;;;4993628;28;20409;-71
2021/04/09 09:12:14;;;;;;;13.82;5.38;;;11.10;58.90;10.40;101324.00;;;;4997517;28;20076;-71
2021/04/09 09:14:43;;;;;;;7.88;4.88;;;11.10;58.90;10.50;101320.00;;;;5003934;28;20117;-71
2021/04/09 09:17:18;;;;;;;6.85;5.30;;;11.30;59.10;10.50;101322.00;;;;4990885;28;20161;-71
2021/04/09 09:19:49;;;;;;;8.30;5.50;;;11.30;59.00;10.60;101314.00;;;;4991115;28;20050;-72
2021/04/09 09:22:20;;;;;;;9.25;5.28;;;11.40;58.60;10.60;101319.00;;;;4991743;28;20073;-72
2021/04/09 09:25:05;;;;;;;6.60;5.47;;;11.40;58.70;10.60;101321.00;;;;4994182;28;20034;-71
2021/04/09 09:27:50;;;;;;;9.85;5.63;;;11.50;58.20;10.70;101308.00;;;;4988411;28;20046;-71
2021/04/09 09:30:31;;;;;;;9.30;5.28;;;11.50;58.00;10.70;101315.00;;;;4996059;28;20053;-72
2021/04/09 09:33:27;;;;;;;7.95;5.32;;;11.50;58.30;10.70;101319.00;;;;4994038;28;20671;-70
2021/04/09 09:35:57;;;;;;;14.77;5.28;;;11.50;57.60;10.90;101308.00;;;;4991769;28;20509;-71
2021/04/09 09:38:55;;;;;;;11.02;5.25;;;11.70;58.50;11.10;101315.00;;;;4994919;28;20038;-70
2021/04/09 09:41:47;;;;;;;8.07;5.13;;;11.80;57.60;11.30;101319.00;;;;4996033;28;20180;-69
2021/04/09 09:44:41;;;;;;;7.85;4.68;;;12.00;57.60;11.30;101327.00;;;;4992972;28;20034;-70
2021/04/09 09:47:16;;;;;;;12.40;5.28;;;12.10;57.30;11.40;101314.00;;;;4992086;28;20034;-72
2021/04/09 09:50:10;;;;;;;7.95;4.50;;;12.10;57.00;11.40;101316.00;;;;4991220;28;20046;-71
2021/04/09 09:53:02;;;;;;;6.38;4.20;;;12.20;57.20;11.50;101314.00;;;;4989232;28;20144;-71
2021/04/09 09:55:44;;;;;;;7.72;4.75;;;12.30;57.40;11.70;101316.00;;;;4987551;28;20133;-72
2021/04/09 09:58:26;;;;;;;8.48;4.20;;;12.40;56.90;11.80;101329.00;;;;4989222;28;20161;-72
2021/04/09 10:00:56;;;;;;;6.78;4.32;;;12.50;56.80;11.90;101318.00;;;;4991823;28;20057;-71
2021/04/09 10:03:30;;;;;;;5.88;4.10;;;12.60;56.10;11.90;101321.00;;;;5011392;28;20405;-71
2021/04/09 10:06:13;;;;;;;5.50;3.85;;;12.60;56.10;12.00;101312.00;;;;4992038;28;20112;-71
2021/04/09 10:08:42;;;;;;;7.80;4.10;;;12.70;55.80;12.10;101307.00;;;;4994031;28;20504;-71
2021/04/09 10:11:17;;;;;;;5.35;4.03;;;12.80;56.00;12.20;101316.00;;;;4985235;28;20050;-70
2021/04/09 10:13:46;;;;;;;5.78;3.72;;;12.90;55.60;12.20;101309.00;;;;4991294;28;20532;-71
2021/04/09 10:16:21;;;;;;;6.20;4.57;;;12.90;56.00;12.20;101315.00;;;;4976164;28;20038;-72
2021/04/09 10:18:56;;;;;;;7.05;4.53;;;12.90;55.80;12.20;101307.00;;;;4995048;28;20064;-72
2021/04/09 10:21:32;;;;;;;5.97;4.10;;;13.00;55.80;12.20;101319.00;;;;5010667;28;20801;-72
2021/04/09 10:24:09;;;;;;;7.78;4.18;;;13.00;56.30;12.40;101313.00;;;;4996549;28;20579;-72
2021/04/09 10:26:53;;;;;;;7.32;4.97;;;13.00;56.50;12.50;101312.00;;;;4995439;28;20037;-71
2021/04/09 10:29:33;;;;;;;7.55;4.15;;;13.20;56.00;12.40;101302.00;;;;4993215;28;20050;-71
2021/04/09 10:32:01;;;;;;;6.78;4.38;;;13.20;55.20;12.50;101309.00;;;;4993793;28;20161;-72
2021/04/09 10:34:31;;;;;;;8.85;4.70;;;13.20;55.50;12.80;101311.00;;;;4991691;28;20100;-71
2021/04/09 10:36:56;;;;;;;7.28;4.40;;;13.40;55.80;13.00;101314.00;;;;4990292;28;20248;-71
2021/04/09 10:39:24;;;;;;;8.15;4.10;;;13.60;55.20;13.20;101308.00;;;;4985878;28;20516;-72
2021/04/09 10:41:53;;;;;;;5.70;3.50;;;13.80;55.20;13.50;101298.00;;;;4983513;28;20101;-72
2021/04/09 10:44:25;;;;;;;8.32;4.22;;;14.00;55.00;13.60;101318.00;;;;4993555;28;20053;-71
2021/04/09 10:46:54;;;;;;;6.22;3.70;;;14.10;54.60;13.70;101309.00;;;;4992758;28;20780;-72
2021/04/09 10:49:32;;;;;;;7.32;3.92;;;14.30;54.20;13.80;101305.00;;;;4996450;28;20200;-71
2021/04/09 10:52:17;;;;;;;7.65;3.80;;;14.40;54.10;13.70;101302.00;;;;4989470;28;20041;-72
2021/04/09 10:54:45;;;;;;;6.53;3.13;;;14.40;53.10;13.60;101299.00;;;;4990216;28;20208;-72
2021/04/09 10:57:15;;;;;;;4.60;3.13;;;14.40;53.30;13.60;101297.00;;;;4992045;28;20041;-72
2021/04/09 10:59:43;;;;;;;6.15;3.47;;;14.30;53.30;13.50;101299.00;;;;4991386;28;20127;-71
2021/04/09 11:02:17;;;;;;;6.55;3.53;;;14.30;53.90;13.50;101293.00;;;;4990135;28;20455;-71
2021/04/09 11:04:59;;;;;;;4.60;2.88;;;14.30;53.80;13.60;101295.00;;;;4990384;28;20050;-72